This is the latest recevied weather packets stored in our database for station/object kj4yre. If no packets are shown the sender has not sent any weather packets the latest 1 day(s).
| Time | Temp. | Humidity | Pressure | Rain* | Wind** | Luminosity | Snow |
|---|---|---|---|---|---|---|---|
| 1778079137 | 18.89° C | 88% | 1014.5 hPa | 0.25 mm | - | - | - |
| 1778078836 | 20° C | 81% | 1014.6 hPa | 0 mm | - | - | - |
| 1778077036 | 20.56° C | 77% | 1014 hPa | 0 mm | - | - | - |
| 1778074035 | 19.44° C | 81% | 1014 hPa | 0 mm | - | - | - |
| 1778073435 | 19.44° C | 78% | 1014.1 hPa | 0 mm | - | - | - |
| 1778072536 | 19.44° C | 77% | 1014.2 hPa | 0 mm | - | - | - |
| 1778070435 | 19.44° C | 79% | 1014.1 hPa | 0 mm | - | - | - |
| 1778063535 | 17.78° C | 81% | 1014.2 hPa | 0 mm | - | - | - |
| 1778061737 | 17.22° C | 81% | 1014 hPa | 0 mm | - | - | - |
| 1778060535 | 17.78° C | 81% | 1014.1 hPa | 0 mm | - | - | - |
| 1778054237 | 17.78° C | 79% | 1014.3 hPa | 0 mm | - | - | - |
| 1778052437 | 17.78° C | 79% | 1014.5 hPa | 0 mm | - | - | - |
| 1778051235 | 17.78° C | 79% | 1014.7 hPa | 0 mm | - | - | - |
| 1778044636 | 18.89° C | 79% | 1015.2 hPa | 0 mm | - | - | - |
| 1778044335 | 18.89° C | 78% | 1015.3 hPa | 0 mm | - | - | - |
| 1778038033 | 20.56° C | 72% | 1015.1 hPa | 0 mm | - | - | - |
| 1778037435 | 20.56° C | 71% | 1015.1 hPa | 0 mm | - | - | - |
| 1778036235 | 21.11° C | 69% | 1015 hPa | 0 mm | - | - | - |
| 1778035336 | 21.67° C | 67% | 1014.9 hPa | 0 mm | - | - | - |
| 1778035035 | 21.67° C | 66% | 1014.9 hPa | 0 mm | - | - | - |
| 1778034736 | 21.67° C | 66% | 1014.9 hPa | 0 mm | - | - | - |
| 1778033536 | 21.67° C | 64% | 1014.6 hPa | 0 mm | - | - | - |
| 1778031436 | 21.67° C | 61% | 1014.3 hPa | 0 mm | - | - | - |
| 1778031137 | 21.67° C | 60% | 1014.2 hPa | 0 mm | - | - | - |
| 1778030537 | 22.22° C | 60% | 1014.2 hPa | 0 mm | - | - | - |
* Rain latest hour (hover to see other rain measurements)
** Current wind speed in m/s (hover to see current wind gust speed)